createdAt,value
2023-03-14T00:00:24.176Z,98635.57
2023-03-14T00:02:56.861Z,98634.29
2023-03-14T00:05:10.025Z,98629.91
2023-03-14T00:07:25.349Z,98623.24
2023-03-14T00:09:37.966Z,98618.48
2023-03-14T00:11:50.501Z,98615.48
2023-03-14T00:14:03.952Z,98622.62
2023-03-14T00:16:16.923Z,98621.78
2023-03-14T00:18:29.565Z,98625.86
2023-03-14T00:20:42.111Z,98621.62
2023-03-14T00:22:54.708Z,98614.01
2023-03-14T00:25:09.222Z,98613.73
2023-03-14T00:27:21.759Z,98609.01
2023-03-14T00:29:34.330Z,98609.94
2023-03-14T00:31:46.940Z,98603.16
2023-03-14T00:33:59.516Z,98602.67
2023-03-14T00:36:16.837Z,98598.65
2023-03-14T00:38:30.637Z,98597.72
2023-03-14T00:40:43.144Z,98597.95
2023-03-14T00:42:55.809Z,98597.20
2023-03-14T00:45:09.868Z,98597.17
2023-03-14T00:47:22.425Z,98607.02
2023-03-14T00:49:35.220Z,98619.28
2023-03-14T00:51:47.756Z,98640.54
2023-03-14T00:54:01.025Z,98686.04
2023-03-14T00:56:13.986Z,98706.65
2023-03-14T00:58:26.508Z,98683.04
2023-03-14T01:00:40.166Z,98679.11
2023-03-14T01:02:52.773Z,98661.86
2023-03-14T01:05:05.631Z,98645.13
2023-03-14T01:07:18.242Z,98648.33
2023-03-14T01:09:30.845Z,98651.70
2023-03-14T01:11:47.295Z,98649.69
2023-03-14T01:14:00.164Z,98650.20
2023-03-14T01:16:14.466Z,98644.13
2023-03-14T01:18:27.092Z,98643.47
2023-03-14T01:20:39.685Z,98647.55
2023-03-14T01:22:52.341Z,98643.20
2023-03-14T01:25:05.718Z,98641.42
2023-03-14T01:27:18.300Z,98633.27
2023-03-14T01:29:31.375Z,98624.52
2023-03-14T01:31:43.962Z,98622.49
2023-03-14T01:33:56.635Z,98613.23
2023-03-14T01:36:10.414Z,98604.79
2023-03-14T01:38:23.073Z,98612.55
2023-03-14T01:40:43.083Z,98614.21
2023-03-14T01:42:58.351Z,98606.70
2023-03-14T01:45:48.736Z,98596.23
2023-03-14T01:48:01.338Z,98584.17
2023-03-14T01:50:13.881Z,98578.34
2023-03-14T01:52:36.089Z,98557.09
2023-03-14T01:54:56.604Z,98520.13
2023-03-14T01:57:16.881Z,98505.98
2023-03-14T01:59:32.623Z,98503.38
2023-03-14T02:01:47.499Z,98517.02
2023-03-14T02:04:03.583Z,98511.98
2023-03-14T02:06:20.431Z,98497.31
2023-03-14T02:08:34.366Z,98489.40
2023-03-14T02:10:49.782Z,98489.02
2023-03-14T02:13:04.587Z,98491.56
2023-03-14T02:15:17.344Z,98473.02
2023-03-14T02:17:30.089Z,98467.80
2023-03-14T02:20:10.077Z,98460.38
2023-03-14T02:22:22.987Z,98455.37
2023-03-14T02:24:45.905Z,98443.63
2023-03-14T02:27:07.745Z,98446.36
2023-03-14T02:29:20.426Z,98448.98
2023-03-14T02:31:34.279Z,98440.45
2023-03-14T02:33:46.890Z,98437.77
2023-03-14T02:36:02.484Z,98431.64
2023-03-14T02:38:36.840Z,98422.32
2023-03-14T02:40:49.557Z,98421.03
2023-03-14T02:43:02.174Z,98424.60
2023-03-14T02:45:14.825Z,98424.30
2023-03-14T02:47:30.859Z,98429.98
2023-03-14T02:49:43.705Z,98423.09
2023-03-14T02:51:56.335Z,98415.89
2023-03-14T02:54:09.049Z,98405.84
2023-03-14T02:56:21.827Z,98400.28
2023-03-14T02:58:34.675Z,98387.88
2023-03-14T03:00:47.726Z,98379.89
2023-03-14T03:03:00.681Z,98376.55
2023-03-14T03:05:13.309Z,98375.81
2023-03-14T03:07:26.129Z,98386.69
2023-03-14T03:09:38.716Z,98391.60
2023-03-14T03:11:51.445Z,98386.34
2023-03-14T03:14:04.064Z,98382.16
2023-03-14T03:16:16.917Z,98380.33
2023-03-14T03:18:29.558Z,98372.20
2023-03-14T03:20:42.207Z,98374.61
2023-03-14T03:22:55.010Z,98372.16
2023-03-14T03:25:09.107Z,98366.37
2023-03-14T03:27:21.717Z,98364.23
2023-03-14T03:29:34.341Z,98375.09
2023-03-14T03:31:46.946Z,98377.20
2023-03-14T03:33:59.497Z,98381.41
2023-03-14T03:36:12.939Z,98380.33
2023-03-14T03:38:25.566Z,98376.38
2023-03-14T03:40:38.185Z,98372.51
2023-03-14T03:42:50.876Z,98374.15
2023-03-14T03:45:04.454Z,98367.50
2023-03-14T03:47:16.988Z,98363.50
2023-03-14T03:49:31.320Z,98357.45
2023-03-14T03:51:43.851Z,98346.93
2023-03-14T03:53:57.346Z,98346.95
2023-03-14T03:56:10.362Z,98334.75
2023-03-14T03:58:22.903Z,98330.83
2023-03-14T04:00:35.589Z,98335.94
2023-03-14T04:02:48.237Z,98332.90
2023-03-14T04:05:01.456Z,98329.69
2023-03-14T04:07:15.006Z,98322.11
2023-03-14T04:09:27.537Z,98326.70
2023-03-14T04:11:40.211Z,98328.77
2023-03-14T04:13:53.050Z,98325.55
2023-03-14T04:16:15.157Z,98318.95
2023-03-14T04:18:28.204Z,98330.09
2023-03-14T04:20:40.782Z,98329.02
2023-03-14T04:22:53.353Z,98320.80
2023-03-14T04:25:07.477Z,98320.41
2023-03-14T04:27:20.195Z,98309.67
2023-03-14T04:29:32.809Z,98298.45
2023-03-14T04:31:45.463Z,98303.70
2023-03-14T04:33:58.178Z,98302.91
2023-03-14T04:36:10.844Z,98303.58
2023-03-14T04:38:23.428Z,98301.33
2023-03-14T04:40:38.550Z,98303.48
2023-03-14T04:42:51.173Z,98305.43
2023-03-14T04:45:04.249Z,98302.15
2023-03-14T04:47:16.825Z,98290.61
2023-03-14T04:49:29.456Z,98285.28
2023-03-14T04:51:42.095Z,98282.46
2023-03-14T04:53:55.537Z,98292.02
2023-03-14T04:56:08.571Z,98286.48
2023-03-14T04:58:22.108Z,98275.52
2023-03-14T05:00:34.908Z,98273.20
2023-03-14T05:02:47.544Z,98277.70
2023-03-14T05:05:00.232Z,98277.51
2023-03-14T05:07:13.968Z,98282.55
2023-03-14T05:09:27.679Z,98284.01
2023-03-14T05:11:40.274Z,98276.70
2023-03-14T05:13:52.844Z,98274.64
2023-03-14T05:16:08.397Z,98267.02
2023-03-14T05:18:21.012Z,98257.42
2023-03-14T05:20:33.604Z,98248.30
2023-03-14T05:22:46.267Z,98246.73
2023-03-14T05:25:00.037Z,98246.67
2023-03-14T05:27:12.796Z,98239.52
2023-03-14T05:29:25.826Z,98247.32
2023-03-14T05:31:38.544Z,98240.91
2023-03-14T05:33:51.318Z,98244.93
2023-03-14T05:36:04.253Z,98244.89
2023-03-14T05:38:16.886Z,98251.20
2023-03-14T05:40:29.562Z,98257.33
2023-03-14T05:42:42.175Z,98262.96
2023-03-14T05:44:54.927Z,98271.57
2023-03-14T05:47:07.617Z,98272.75
2023-03-14T05:49:20.264Z,98275.64
2023-03-14T05:51:32.829Z,98285.68
2023-03-14T05:53:45.487Z,98292.73
2023-03-14T05:55:58.432Z,98297.65
2023-03-14T05:58:11.111Z,98294.59
2023-03-14T06:00:24.241Z,98286.81
2023-03-14T06:02:36.858Z,98285.66
2023-03-14T06:04:49.523Z,98280.38
2023-03-14T06:07:02.119Z,98273.11
2023-03-14T06:09:14.694Z,98271.86
2023-03-14T06:11:27.260Z,98273.53
2023-03-14T06:13:39.830Z,98275.52
2023-03-14T06:15:52.426Z,98279.83
2023-03-14T06:18:05.036Z,98288.52
2023-03-14T06:20:17.801Z,98295.09
2023-03-14T06:22:30.416Z,98307.77
2023-03-14T06:24:43.192Z,98305.88
2023-03-14T06:26:55.772Z,98307.59
2023-03-14T06:29:08.495Z,98313.48
2023-03-14T06:31:21.147Z,98315.84
2023-03-14T06:33:33.781Z,98318.52
2023-03-14T06:35:46.355Z,98316.55
2023-03-14T06:37:58.894Z,98318.80
2023-03-14T06:40:17.730Z,98322.13
2023-03-14T06:42:30.328Z,98319.84
2023-03-14T06:44:42.896Z,98324.16
2023-03-14T06:46:55.458Z,98325.57
2023-03-14T06:49:08.128Z,98323.77
2023-03-14T06:51:20.781Z,98322.81
2023-03-14T06:53:33.574Z,98325.39
2023-03-14T06:55:46.688Z,98326.07
2023-03-14T06:57:59.363Z,98327.70
2023-03-14T07:00:13.741Z,98331.79
2023-03-14T07:02:39.747Z,98326.98
2023-03-14T07:04:54.767Z,98332.80
2023-03-14T07:07:07.735Z,98328.90
2023-03-14T07:09:20.541Z,98331.04
2023-03-14T07:11:33.062Z,98332.52
2023-03-14T07:13:45.648Z,98331.97
2023-03-14T07:15:58.223Z,98321.71
2023-03-14T07:18:10.787Z,98316.70
2023-03-14T07:20:24.317Z,98318.64
2023-03-14T07:22:36.870Z,98332.22
2023-03-14T07:24:49.395Z,98340.45
2023-03-14T07:27:01.950Z,98339.23
2023-03-14T07:29:14.439Z,98321.86
2023-03-14T07:31:27.048Z,98311.55
2023-03-14T07:33:39.721Z,98308.36
2023-03-14T07:35:52.358Z,98302.92
2023-03-14T07:38:05.374Z,98284.52
2023-03-14T07:40:18.101Z,98275.41
2023-03-14T07:42:30.990Z,98273.66
2023-03-14T07:44:43.557Z,98266.52
2023-03-14T07:46:56.462Z,98277.39
2023-03-14T07:49:09.049Z,98276.79
2023-03-14T07:51:21.578Z,98282.98
2023-03-14T07:53:34.204Z,98272.35
2023-03-14T07:55:46.969Z,98287.42
2023-03-14T07:57:59.600Z,98283.98
2023-03-14T08:00:14.787Z,98290.77
2023-03-14T08:02:28.382Z,98296.82
2023-03-14T08:04:41.194Z,98299.95
2023-03-14T08:06:55.291Z,98305.13
2023-03-14T08:09:07.918Z,98325.73
2023-03-14T08:11:20.477Z,98333.13
2023-03-14T08:13:33.473Z,98336.23
2023-03-14T08:15:49.892Z,98335.13
2023-03-14T08:18:02.473Z,98337.38
2023-03-14T08:20:15.350Z,98332.17
2023-03-14T08:22:27.883Z,98336.45
2023-03-14T08:24:40.462Z,98330.88
2023-03-14T08:26:52.941Z,98327.92
2023-03-14T08:29:05.697Z,98335.77
2023-03-14T08:31:18.588Z,98339.58
2023-03-14T08:33:31.481Z,98344.50
2023-03-14T08:35:44.152Z,98357.69
2023-03-14T08:37:56.779Z,98363.98
2023-03-14T08:40:11.308Z,98367.81
2023-03-14T08:42:23.933Z,98367.55
2023-03-14T08:44:36.473Z,98369.23
2023-03-14T08:46:49.188Z,98368.25
2023-03-14T08:49:01.898Z,98366.81
2023-03-14T08:51:15.576Z,98372.55
2023-03-14T08:53:28.094Z,98369.41
2023-03-14T08:55:40.630Z,98373.80
2023-03-14T08:57:53.276Z,98370.28
2023-03-14T09:00:11.410Z,98364.45
2023-03-14T09:02:25.208Z,98358.39
2023-03-14T09:04:37.882Z,98361.24
2023-03-14T09:06:50.455Z,98358.52
2023-03-14T09:09:03.537Z,98358.80
2023-03-14T09:11:16.409Z,98355.84
2023-03-14T09:13:28.967Z,98370.70
2023-03-14T09:15:43.280Z,98370.97
2023-03-14T09:17:55.985Z,98364.16
2023-03-14T09:20:09.899Z,98361.16
2023-03-14T09:22:22.615Z,98362.36
2023-03-14T09:24:35.158Z,98357.95
2023-03-14T09:26:47.900Z,98357.30
2023-03-14T09:29:00.452Z,98357.91
2023-03-14T09:31:14.538Z,98362.64
2023-03-14T09:33:27.407Z,98370.38
2023-03-14T09:35:39.966Z,98372.33
2023-03-14T09:37:52.645Z,98376.50
2023-03-14T09:40:11.308Z,98385.01
2023-03-14T09:42:27.521Z,98389.43
2023-03-14T09:44:47.376Z,98393.30
2023-03-14T09:47:05.199Z,98403.77
2023-03-14T09:49:23.008Z,98402.09
2023-03-14T09:51:35.606Z,98404.73
2023-03-14T09:53:49.901Z,98406.90
2023-03-14T09:56:02.545Z,98410.77
2023-03-14T09:58:21.796Z,98413.23
2023-03-14T10:00:34.387Z,98414.52
2023-03-14T10:02:56.610Z,98408.89
2023-03-14T10:05:16.834Z,98409.27
2023-03-14T10:07:32.964Z,98411.54
2023-03-14T10:09:48.956Z,98405.95
2023-03-14T10:12:02.402Z,98406.88
2023-03-14T10:14:33.684Z,98401.66
2023-03-14T10:16:47.073Z,98401.20
2023-03-14T10:19:08.643Z,98402.35
2023-03-14T10:21:29.695Z,98403.44
2023-03-14T10:23:42.255Z,98398.23
2023-03-14T10:26:13.047Z,98399.08
2023-03-14T10:28:31.857Z,98397.80
2023-03-14T10:30:46.575Z,98397.84
2023-03-14T10:33:09.317Z,98396.94
2023-03-14T10:35:23.884Z,98398.58
2023-03-14T10:37:36.925Z,98395.59
2023-03-14T10:39:56.334Z,98393.52
2023-03-14T10:42:25.192Z,98388.29
2023-03-14T10:44:39.699Z,98383.46
2023-03-14T10:47:01.761Z,98377.34
2023-03-14T10:49:29.601Z,98374.19
2023-03-14T10:51:42.124Z,98370.66
2023-03-14T10:54:04.370Z,98374.16
2023-03-14T10:56:22.569Z,98374.91
2023-03-14T10:58:41.135Z,98375.65
2023-03-14T11:01:13.310Z,98370.28
2023-03-14T11:03:29.230Z,98372.29
2023-03-14T11:06:05.163Z,98378.54
2023-03-14T11:08:56.123Z,98375.20
2023-03-14T11:11:17.510Z,98368.86
2023-03-14T11:13:29.969Z,98370.61
2023-03-14T11:16:07.480Z,98364.79
2023-03-14T11:18:41.032Z,98361.82
2023-03-14T11:21:29.751Z,98351.83
2023-03-14T11:23:57.544Z,98343.66
2023-03-14T11:26:41.217Z,98337.48
2023-03-14T11:29:12.751Z,98329.81
2023-03-14T11:31:30.783Z,98330.72
2023-03-14T11:34:06.338Z,98327.73
2023-03-14T11:36:26.666Z,98321.70
2023-03-14T11:38:56.142Z,98317.33
2023-03-14T11:41:17.601Z,98321.91
2023-03-14T11:43:35.996Z,98330.19
2023-03-14T11:45:50.984Z,98328.88
2023-03-14T11:48:22.000Z,98335.42
2023-03-14T11:50:36.074Z,98335.35
2023-03-14T11:52:55.940Z,98330.05
2023-03-14T11:55:18.967Z,98329.14
2023-03-14T11:57:31.610Z,98328.38
2023-03-14T12:00:15.123Z,98327.04
2023-03-14T12:02:30.745Z,98326.35
2023-03-14T12:04:49.194Z,98328.27
2023-03-14T12:07:15.944Z,98333.55
2023-03-14T12:09:30.587Z,98336.14
2023-03-14T12:11:53.689Z,98335.09
2023-03-14T12:14:21.333Z,98327.73
2023-03-14T12:16:40.781Z,98323.06
2023-03-14T12:18:54.814Z,98331.61
2023-03-14T12:21:10.759Z,98328.76
2023-03-14T12:23:25.565Z,98318.22
2023-03-14T12:25:38.311Z,98322.70
2023-03-14T12:27:56.950Z,98314.83
2023-03-14T12:30:40.646Z,98313.59
2023-03-14T12:33:11.468Z,98315.49
2023-03-14T12:35:40.936Z,98309.63
2023-03-14T12:37:56.836Z,98307.48
2023-03-14T12:40:10.462Z,98306.66
2023-03-14T12:42:52.718Z,98306.95
2023-03-14T12:45:25.845Z,98308.40
2023-03-14T12:47:38.399Z,98311.36
2023-03-14T12:49:54.219Z,98307.45
2023-03-14T12:52:15.601Z,98306.70
2023-03-14T12:54:46.936Z,98304.81
2023-03-14T12:57:16.725Z,98303.22
2023-03-14T12:59:33.605Z,98299.27
2023-03-14T13:01:54.466Z,98298.90
2023-03-14T13:04:12.639Z,98297.56
2023-03-14T13:06:48.848Z,98299.02
2023-03-14T13:09:27.127Z,98303.43
2023-03-14T13:11:42.119Z,98299.41
2023-03-14T13:13:59.594Z,98299.16
2023-03-14T13:16:17.444Z,98297.08
2023-03-14T13:18:52.550Z,98295.33
2023-03-14T13:21:20.960Z,98288.80
2023-03-14T13:23:37.671Z,98288.60
2023-03-14T13:25:50.420Z,98286.55
2023-03-14T13:28:04.059Z,98285.94
2023-03-14T13:30:24.649Z,98291.01
2023-03-14T13:32:43.408Z,98289.80
2023-03-14T13:34:59.517Z,98285.94
2023-03-14T13:37:23.001Z,98286.61
2023-03-14T13:39:35.672Z,98286.93
2023-03-14T13:41:49.412Z,98284.85
2023-03-14T13:44:07.802Z,98288.33
2023-03-14T13:46:24.303Z,98286.05
2023-03-14T13:48:44.921Z,98284.73
2023-03-14T13:51:07.139Z,98286.21
2023-03-14T13:53:20.777Z,98278.53
2023-03-14T13:55:34.430Z,98274.29
2023-03-14T13:57:56.721Z,98271.89
2023-03-14T14:00:24.816Z,98275.06
2023-03-14T14:02:39.022Z,98282.61
2023-03-14T14:04:52.335Z,98281.42
2023-03-14T14:07:11.069Z,98287.67
2023-03-14T14:09:32.631Z,98283.79
2023-03-14T14:12:15.385Z,98281.05
2023-03-14T14:14:41.520Z,98281.77
2023-03-14T14:16:54.782Z,98281.15
2023-03-14T14:19:08.918Z,98287.28
2023-03-14T14:21:22.152Z,98282.46
2023-03-14T14:23:37.002Z,98280.33
2023-03-14T14:25:50.212Z,98277.10
2023-03-14T14:28:35.621Z,98276.13
2023-03-14T14:31:06.039Z,98283.09
2023-03-14T14:33:21.588Z,98278.58
2023-03-14T14:35:36.318Z,98280.89
2023-03-14T14:37:49.422Z,98280.55
2023-03-14T14:40:17.052Z,98282.70
2023-03-14T14:42:32.047Z,98280.23
2023-03-14T14:44:46.416Z,98280.85
2023-03-14T14:47:00.250Z,98276.35
2023-03-14T14:49:20.447Z,98277.73
2023-03-14T14:51:39.978Z,98274.30
2023-03-14T14:54:04.045Z,98271.80
2023-03-14T14:56:20.247Z,98272.58
2023-03-14T14:58:40.698Z,98273.79
2023-03-14T15:01:16.182Z,98272.71
2023-03-14T15:03:30.891Z,98264.39
2023-03-14T15:05:43.400Z,98257.42
2023-03-14T15:07:55.992Z,98254.83
2023-03-14T15:10:13.746Z,98253.58
2023-03-14T15:12:26.341Z,98253.48
2023-03-14T15:14:39.114Z,98249.48
2023-03-14T15:16:51.743Z,98243.51
2023-03-14T15:19:23.708Z,98246.43
2023-03-14T15:21:36.860Z,98249.34
2023-03-14T15:23:49.676Z,98246.45
2023-03-14T15:26:03.758Z,98251.13
2023-03-14T15:28:23.198Z,98254.11
2023-03-14T15:30:35.810Z,98246.46
2023-03-14T15:32:48.540Z,98243.27
2023-03-14T15:35:01.268Z,98239.17
2023-03-14T15:37:16.870Z,98242.89
2023-03-14T15:39:29.564Z,98247.46
2023-03-14T15:41:42.280Z,98250.99
2023-03-14T15:43:55.984Z,98250.91
2023-03-14T15:46:10.847Z,98250.05
2023-03-14T15:48:23.549Z,98247.13
2023-03-14T15:50:36.193Z,98248.19
2023-03-14T15:52:49.269Z,98251.36
2023-03-14T15:55:01.920Z,98254.70
2023-03-14T15:57:14.571Z,98253.01
2023-03-14T15:59:27.348Z,98249.35
2023-03-14T16:01:40.173Z,98250.55
2023-03-14T16:03:53.790Z,98253.54
2023-03-14T16:06:07.084Z,98252.96
2023-03-14T16:08:19.751Z,98256.83
2023-03-14T16:10:33.249Z,98259.77
2023-03-14T16:12:46.116Z,98259.10
2023-03-14T16:14:58.833Z,98257.91
2023-03-14T16:17:13.057Z,98254.71
2023-03-14T16:19:27.250Z,98254.27
2023-03-14T16:21:39.922Z,98255.51
2023-03-14T16:23:52.596Z,98257.72
2023-03-14T16:26:08.085Z,98256.25
2023-03-14T16:28:20.891Z,98250.40
2023-03-14T16:30:33.497Z,98251.23
2023-03-14T16:32:48.146Z,98255.39
2023-03-14T16:35:01.262Z,98251.85
2023-03-14T16:37:14.257Z,98258.12
2023-03-14T16:39:29.026Z,98254.94
2023-03-14T16:41:42.290Z,98254.55
2023-03-14T16:43:56.356Z,98259.49
2023-03-14T16:46:14.286Z,98260.59
2023-03-14T16:48:28.315Z,98262.15
2023-03-14T16:50:41.593Z,98269.56
2023-03-14T16:52:55.402Z,98273.34
2023-03-14T16:55:08.451Z,98274.91
2023-03-14T16:57:21.119Z,98281.77
2023-03-14T16:59:33.964Z,98285.13
2023-03-14T17:01:46.858Z,98287.36
2023-03-14T17:03:59.831Z,98285.02
2023-03-14T17:06:19.355Z,98284.29
2023-03-14T17:08:35.190Z,98290.46
2023-03-14T17:10:47.942Z,98292.48
2023-03-14T17:13:01.452Z,98296.55
2023-03-14T17:15:14.206Z,98300.98
2023-03-14T17:17:26.896Z,98306.16
2023-03-14T17:19:39.618Z,98316.89
2023-03-14T17:21:57.893Z,98315.16
2023-03-14T17:24:11.031Z,98318.23
2023-03-14T17:26:23.804Z,98323.38
2023-03-14T17:28:39.889Z,98321.84
2023-03-14T17:31:02.881Z,98328.05
2023-03-14T17:33:16.681Z,98333.75
2023-03-14T17:35:29.647Z,98333.55
2023-03-14T17:37:42.595Z,98336.71
2023-03-14T17:39:55.404Z,98340.05
2023-03-14T17:42:08.536Z,98344.87
2023-03-14T17:44:22.549Z,98345.49
2023-03-14T17:46:38.486Z,98350.33
2023-03-14T17:48:51.317Z,98346.16
2023-03-14T17:51:07.139Z,98349.44
2023-03-14T17:53:19.896Z,98352.95
2023-03-14T17:55:32.506Z,98352.71
2023-03-14T17:57:45.205Z,98350.67
2023-03-14T17:59:58.305Z,98353.45
2023-03-14T18:02:11.691Z,98356.54
2023-03-14T18:04:24.685Z,98355.27
2023-03-14T18:06:37.654Z,98360.77
2023-03-14T18:08:51.480Z,98366.26
2023-03-14T18:11:06.628Z,98371.75
2023-03-14T18:13:19.386Z,98370.44
2023-03-14T18:15:34.296Z,98363.73
2023-03-14T18:17:47.288Z,98361.98
2023-03-14T18:20:00.160Z,98362.83
2023-03-14T18:22:13.052Z,98357.64
2023-03-14T18:24:27.763Z,98358.20
2023-03-14T18:26:42.832Z,98360.05
2023-03-14T18:28:55.562Z,98359.54
2023-03-14T18:31:11.175Z,98357.26
2023-03-14T18:33:23.981Z,98360.25
2023-03-14T18:35:39.915Z,98365.08
2023-03-14T18:37:52.640Z,98359.77
2023-03-14T18:40:08.868Z,98362.88
2023-03-14T18:42:21.635Z,98362.61
2023-03-14T18:44:34.294Z,98364.14
2023-03-14T18:46:48.530Z,98362.98
2023-03-14T18:49:04.205Z,98359.13
2023-03-14T18:51:17.719Z,98362.50
2023-03-14T18:53:33.486Z,98362.19
2023-03-14T18:55:49.020Z,98361.81
2023-03-14T18:58:01.946Z,98365.01
2023-03-14T19:00:15.515Z,98366.54
2023-03-14T19:02:31.470Z,98366.67
2023-03-14T19:04:44.490Z,98369.60
2023-03-14T19:06:57.979Z,98377.60
2023-03-14T19:09:15.274Z,98382.28
2023-03-14T19:11:28.304Z,98383.70
2023-03-14T19:13:42.226Z,98384.41
2023-03-14T19:15:54.932Z,98388.31
2023-03-14T19:18:10.814Z,98392.80
2023-03-14T19:20:24.553Z,98391.98
2023-03-14T19:22:37.280Z,98394.08
2023-03-14T19:24:49.943Z,98396.71
2023-03-14T19:27:02.740Z,98401.55
2023-03-14T19:29:16.477Z,98404.57
2023-03-14T19:31:29.254Z,98411.95
2023-03-14T19:33:42.604Z,98424.98
2023-03-14T19:35:55.387Z,98436.29
2023-03-14T19:38:08.229Z,98451.32
2023-03-14T19:40:21.022Z,98461.23
2023-03-14T19:42:33.783Z,98469.20
2023-03-14T19:44:46.518Z,98480.46
2023-03-14T19:46:59.341Z,98495.06
2023-03-14T19:49:12.009Z,98576.30
2023-03-14T19:51:24.772Z,98612.89
2023-03-14T19:53:37.911Z,98618.56
2023-03-14T19:55:51.593Z,98633.13
2023-03-14T19:58:05.450Z,98641.41
2023-03-14T20:00:19.567Z,98646.44
2023-03-14T20:02:32.288Z,98662.73
2023-03-14T20:04:46.655Z,98673.73
2023-03-14T20:06:59.423Z,98698.33
2023-03-14T20:09:12.218Z,98712.79
2023-03-14T20:11:25.251Z,98725.23
2023-03-14T20:13:44.820Z,98742.98
2023-03-14T20:15:57.937Z,98759.38
2023-03-14T20:18:10.491Z,98770.23
2023-03-14T20:20:23.162Z,98777.46
2023-03-14T20:22:38.248Z,98797.36
2023-03-14T20:24:52.563Z,98816.86
2023-03-14T20:27:05.262Z,98834.53
2023-03-14T20:29:17.842Z,98841.22
2023-03-14T20:31:30.553Z,98849.05
2023-03-14T20:33:45.370Z,98864.13
2023-03-14T20:35:59.744Z,98873.27
2023-03-14T20:38:12.521Z,98888.64
2023-03-14T20:40:28.558Z,98903.48
2023-03-14T20:42:41.145Z,98914.69
2023-03-14T20:44:54.528Z,98932.30
2023-03-14T20:47:07.182Z,98945.59
2023-03-14T20:49:19.798Z,98957.63
2023-03-14T20:51:33.196Z,98973.83
2023-03-14T20:53:45.809Z,98983.56
2023-03-14T20:55:58.915Z,98991.81
2023-03-14T20:58:15.152Z,99000.84
2023-03-14T21:00:27.744Z,99004.48
2023-03-14T21:02:41.912Z,99014.13
2023-03-14T21:04:57.404Z,99026.50
2023-03-14T21:07:12.240Z,99040.34
2023-03-14T21:09:25.648Z,99055.56
2023-03-14T21:11:41.161Z,99067.05
2023-03-14T21:13:53.728Z,99075.08
2023-03-14T21:16:06.925Z,99085.02
2023-03-14T21:18:23.064Z,99091.37
2023-03-14T21:20:42.256Z,99100.25
2023-03-14T21:22:54.883Z,99097.30
2023-03-14T21:25:07.769Z,99103.33
2023-03-14T21:27:21.431Z,99108.52
2023-03-14T21:29:37.089Z,99112.56
2023-03-14T21:31:50.700Z,99108.04
2023-03-14T21:34:03.233Z,99107.46
2023-03-14T21:36:16.644Z,99119.01
2023-03-14T21:38:29.225Z,99115.95
2023-03-14T21:40:41.822Z,99124.95
2023-03-14T21:42:55.439Z,99140.12
2023-03-14T21:45:08.762Z,99151.34
2023-03-14T21:47:23.435Z,99158.92
2023-03-14T21:49:38.613Z,99170.92
2023-03-14T21:51:52.339Z,99180.73
2023-03-14T21:54:10.080Z,99188.95
2023-03-14T21:56:26.923Z,99193.83
2023-03-14T21:58:40.818Z,99203.38
2023-03-14T22:00:54.443Z,99211.58
2023-03-14T22:03:13.203Z,99211.07
2023-03-14T22:05:26.165Z,99215.61
2023-03-14T22:07:41.208Z,99223.80
2023-03-14T22:09:54.861Z,99233.25
2023-03-14T22:12:07.931Z,99249.84
2023-03-14T22:14:20.806Z,99262.89
2023-03-14T22:16:33.530Z,99273.98
2023-03-14T22:18:46.194Z,99276.53
2023-03-14T22:20:58.842Z,99286.02
2023-03-14T22:23:12.110Z,99295.08
2023-03-14T22:25:24.659Z,99296.56
2023-03-14T22:27:37.233Z,99303.27
2023-03-14T22:29:49.855Z,99312.14
2023-03-14T22:32:02.421Z,99317.02
2023-03-14T22:34:15.063Z,99319.89
2023-03-14T22:36:27.658Z,99322.23
2023-03-14T22:38:40.232Z,99326.16
2023-03-14T22:40:52.978Z,99333.14
2023-03-14T22:43:05.601Z,99339.66
2023-03-14T22:45:18.206Z,99344.72
2023-03-14T22:47:30.909Z,99353.75
2023-03-14T22:49:43.537Z,99353.33
2023-03-14T22:51:56.136Z,99364.56
2023-03-14T22:54:09.175Z,99368.88
2023-03-14T22:56:21.849Z,99371.54
2023-03-14T22:58:35.582Z,99373.73
2023-03-14T23:00:48.169Z,99367.77
2023-03-14T23:03:01.033Z,99361.29
2023-03-14T23:05:13.999Z,99367.22
2023-03-14T23:07:26.565Z,99360.90
2023-03-14T23:09:39.913Z,99364.45
2023-03-14T23:11:52.505Z,99368.70
2023-03-14T23:14:05.142Z,99376.95
2023-03-14T23:16:19.855Z,99377.00
2023-03-14T23:18:34.678Z,99384.14
2023-03-14T23:20:48.374Z,99387.86
2023-03-14T23:23:00.983Z,99393.51
2023-03-14T23:25:13.545Z,99399.77
2023-03-14T23:27:26.255Z,99398.02
2023-03-14T23:29:38.856Z,99393.70
2023-03-14T23:31:51.434Z,99399.70
2023-03-14T23:34:03.959Z,99399.97
2023-03-14T23:36:18.396Z,99409.34
2023-03-14T23:38:32.597Z,99417.80
2023-03-14T23:40:45.267Z,99427.95
2023-03-14T23:42:57.846Z,99433.94
2023-03-14T23:45:16.214Z,99442.39
2023-03-14T23:47:29.263Z,99445.52
2023-03-14T23:49:41.907Z,99450.70
2023-03-14T23:51:54.535Z,99450.89
2023-03-14T23:54:07.051Z,99461.08
2023-03-14T23:56:19.776Z,99471.36
2023-03-14T23:58:36.079Z,99482.15
